createdAt,value
2023-01-21T00:00:23.068Z,40.00
2023-01-21T00:02:49.612Z,48.83
2023-01-21T00:05:16.227Z,53.73
2023-01-21T00:07:42.777Z,48.57
2023-01-21T00:10:09.926Z,54.80
2023-01-21T00:12:38.488Z,44.17
2023-01-21T00:15:05.475Z,40.80
2023-01-21T00:17:35.741Z,63.37
2023-01-21T00:20:03.816Z,43.90
2023-01-21T00:22:30.710Z,46.60
2023-01-21T00:24:57.330Z,40.03
2023-01-21T00:27:24.088Z,39.73
2023-01-21T00:29:50.685Z,49.83
2023-01-21T00:32:17.483Z,41.43
2023-01-21T00:34:44.074Z,45.40
2023-01-21T00:37:10.709Z,41.23
2023-01-21T00:39:42.532Z,47.80
2023-01-21T00:42:11.149Z,44.60
2023-01-21T00:44:40.866Z,48.13
2023-01-21T00:47:07.469Z,43.20
2023-01-21T00:49:34.057Z,40.90
2023-01-21T00:52:00.891Z,41.60
2023-01-21T00:54:27.470Z,40.57
2023-01-21T00:56:54.293Z,47.77
2023-01-21T00:59:20.929Z,46.10
2023-01-21T01:01:47.557Z,40.50
2023-01-21T01:04:14.411Z,45.00
2023-01-21T01:06:41.123Z,40.03
2023-01-21T01:09:08.249Z,37.10
2023-01-21T01:11:34.890Z,40.10
2023-01-21T01:14:01.504Z,42.67
2023-01-21T01:16:28.136Z,46.20
2023-01-21T01:18:55.817Z,40.73
2023-01-21T01:21:24.525Z,38.67
2023-01-21T01:24:00.583Z,44.20
2023-01-21T01:26:27.339Z,38.67
2023-01-21T01:28:53.937Z,43.07
2023-01-21T01:31:21.617Z,35.77
2023-01-21T01:33:48.520Z,41.40
2023-01-21T01:36:17.610Z,37.83
2023-01-21T01:38:44.667Z,46.17
2023-01-21T01:41:20.848Z,42.03
2023-01-21T01:44:03.739Z,39.23
2023-01-21T01:46:34.956Z,48.30
2023-01-21T01:49:30.855Z,50.07
2023-01-21T01:52:02.668Z,55.67
2023-01-21T01:54:35.599Z,50.43
2023-01-21T01:57:05.484Z,46.97
2023-01-21T01:59:32.863Z,42.17
2023-01-21T02:02:04.654Z,48.03
2023-01-21T02:04:38.066Z,53.13
2023-01-21T02:07:04.988Z,45.10
2023-01-21T02:09:31.626Z,45.67
2023-01-21T02:12:00.537Z,50.03
2023-01-21T02:14:28.616Z,51.00
2023-01-21T02:17:20.877Z,49.83
2023-01-21T02:19:53.597Z,45.97
2023-01-21T02:22:42.630Z,42.77
2023-01-21T02:25:31.005Z,49.93
2023-01-21T02:28:06.217Z,50.47
2023-01-21T02:31:00.457Z,49.90
2023-01-21T02:33:41.663Z,45.67
2023-01-21T02:36:11.083Z,43.93
2023-01-21T02:38:46.399Z,44.90
2023-01-21T02:41:28.214Z,49.80
2023-01-21T02:44:16.530Z,44.57
2023-01-21T02:46:49.662Z,45.13
2023-01-21T02:49:26.310Z,46.80
2023-01-21T02:51:52.924Z,51.30
2023-01-21T02:54:41.052Z,45.63
2023-01-21T02:57:14.683Z,48.67
2023-01-21T02:59:45.740Z,59.00
2023-01-21T03:02:21.105Z,52.20
2023-01-21T03:05:24.593Z,47.47
2023-01-21T03:08:20.540Z,46.70
2023-01-21T03:10:55.417Z,50.70
2023-01-21T03:13:53.868Z,50.43
2023-01-21T03:16:43.552Z,45.67
2023-01-21T03:19:14.549Z,46.87
2023-01-21T03:21:41.818Z,46.80
2023-01-21T03:24:10.818Z,48.90
2023-01-21T03:26:43.974Z,55.90
2023-01-21T03:29:16.199Z,51.93
2023-01-21T03:31:45.500Z,51.57
2023-01-21T03:34:15.037Z,44.07
2023-01-21T03:37:02.234Z,53.13
2023-01-21T03:39:55.656Z,51.63
2023-01-21T03:42:22.778Z,44.37
2023-01-21T03:44:49.469Z,51.63
2023-01-21T03:47:36.918Z,50.93
2023-01-21T03:50:20.152Z,47.83
2023-01-21T03:52:46.963Z,49.83
2023-01-21T03:55:15.811Z,45.70
2023-01-21T03:57:42.528Z,51.40
2023-01-21T04:00:10.006Z,51.37
2023-01-21T04:02:36.625Z,54.20
2023-01-21T04:05:03.698Z,57.87
2023-01-21T04:07:30.344Z,44.83
2023-01-21T04:09:56.966Z,54.53
2023-01-21T04:12:23.565Z,50.27
2023-01-21T04:14:50.133Z,51.20
2023-01-21T04:17:16.868Z,49.47
2023-01-21T04:19:43.455Z,51.30
2023-01-21T04:22:10.027Z,46.77
2023-01-21T04:24:36.582Z,47.10
2023-01-21T04:27:03.289Z,51.13
2023-01-21T04:29:29.867Z,52.80
2023-01-21T04:31:56.556Z,51.53
2023-01-21T04:34:23.138Z,56.50
2023-01-21T04:36:49.701Z,45.53
2023-01-21T04:39:16.341Z,54.20
2023-01-21T04:41:42.982Z,53.77
2023-01-21T04:44:09.637Z,50.97
2023-01-21T04:46:36.315Z,58.23
2023-01-21T04:49:02.978Z,50.97
2023-01-21T04:51:29.753Z,50.90
2023-01-21T04:53:56.346Z,54.70
2023-01-21T04:56:22.895Z,49.27
2023-01-21T04:58:49.534Z,52.00
2023-01-21T05:01:16.258Z,61.33
2023-01-21T05:03:42.918Z,61.67
2023-01-21T05:06:09.549Z,59.00
2023-01-21T05:08:36.147Z,70.90
2023-01-21T05:11:02.718Z,57.80
2023-01-21T05:13:29.287Z,61.93
2023-01-21T05:15:56.232Z,58.90
2023-01-21T05:18:22.893Z,64.13
2023-01-21T05:20:49.459Z,58.33
2023-01-21T05:23:16.020Z,56.07
2023-01-21T05:25:42.570Z,60.30
2023-01-21T05:28:09.178Z,59.10
2023-01-21T05:30:36.699Z,65.23
2023-01-21T05:33:04.569Z,57.80
2023-01-21T05:35:31.161Z,54.03
2023-01-21T05:38:00.250Z,57.10
2023-01-21T05:40:27.215Z,64.70
2023-01-21T05:42:53.873Z,55.37
2023-01-21T05:45:20.508Z,69.50
2023-01-21T05:47:47.163Z,63.83
2023-01-21T05:50:13.871Z,58.67
2023-01-21T05:52:40.551Z,62.83
2023-01-21T05:55:08.165Z,57.07
2023-01-21T05:57:34.999Z,49.00
2023-01-21T06:00:01.684Z,60.07
2023-01-21T06:02:28.366Z,63.30
2023-01-21T06:04:54.932Z,62.63
2023-01-21T06:07:21.487Z,59.67
2023-01-21T06:09:48.092Z,52.27
2023-01-21T06:12:14.677Z,64.13
2023-01-21T06:14:41.345Z,63.87
2023-01-21T06:17:08.049Z,63.90
2023-01-21T06:19:34.626Z,66.13
2023-01-21T06:22:01.189Z,61.50
2023-01-21T06:24:27.752Z,53.07
2023-01-21T06:26:54.323Z,59.50
2023-01-21T06:29:20.945Z,71.23
2023-01-21T06:31:47.705Z,61.70
2023-01-21T06:34:14.338Z,53.37
2023-01-21T06:36:42.519Z,60.03
2023-01-21T06:39:12.133Z,59.77
2023-01-21T06:41:38.780Z,57.87
2023-01-21T06:44:05.948Z,48.87
2023-01-21T06:46:32.760Z,59.87
2023-01-21T06:48:59.495Z,58.77
2023-01-21T06:51:26.159Z,63.63
2023-01-21T06:53:53.559Z,63.93
2023-01-21T06:56:20.956Z,68.40
2023-01-21T06:58:48.093Z,68.57
2023-01-21T07:01:14.849Z,67.33
2023-01-21T07:03:41.473Z,60.77
2023-01-21T07:06:08.119Z,66.30
2023-01-21T07:08:34.661Z,62.93
2023-01-21T07:11:01.306Z,65.73
2023-01-21T07:13:27.860Z,75.60
2023-01-21T07:16:02.701Z,79.33
2023-01-21T07:18:29.809Z,62.17
2023-01-21T07:20:56.487Z,76.13
2023-01-21T07:23:23.593Z,72.20
2023-01-21T07:25:50.365Z,66.67
2023-01-21T07:28:16.976Z,67.60
2023-01-21T07:30:43.722Z,67.67
2023-01-21T07:33:10.584Z,75.73
2023-01-21T07:35:37.314Z,70.17
2023-01-21T07:38:04.034Z,60.63
2023-01-21T07:40:30.800Z,70.73
2023-01-21T07:58:52.556Z,61.40
2023-01-21T08:01:19.246Z,60.97
2023-01-21T08:03:45.868Z,67.90
2023-01-21T08:06:12.477Z,60.13
2023-01-21T08:08:39.039Z,66.30
2023-01-21T08:11:05.728Z,61.23
2023-01-21T08:13:32.278Z,63.47
2023-01-21T08:15:58.907Z,65.97
2023-01-21T08:18:25.653Z,70.33
2023-01-21T08:20:58.060Z,58.83
2023-01-21T08:23:26.154Z,70.30
2023-01-21T08:25:53.953Z,59.07
2023-01-21T08:28:21.284Z,63.57
2023-01-21T08:30:48.131Z,55.57
2023-01-21T08:33:15.450Z,65.60
2023-01-21T08:35:42.143Z,61.63
2023-01-21T08:38:09.034Z,66.60
2023-01-21T08:40:35.833Z,54.37
2023-01-21T08:43:04.577Z,67.83
2023-01-21T08:45:31.401Z,57.40
2023-01-21T08:47:58.058Z,67.10
2023-01-21T08:50:24.693Z,59.27
2023-01-21T08:52:53.051Z,56.50
2023-01-21T08:55:20.327Z,65.03
2023-01-21T08:57:48.307Z,56.80
2023-01-21T09:00:15.265Z,58.93
2023-01-21T09:02:41.899Z,54.10
2023-01-21T09:05:08.598Z,56.07
2023-01-21T09:07:35.217Z,55.77
2023-01-21T09:10:03.501Z,61.97
2023-01-21T09:12:30.080Z,64.83
2023-01-21T09:14:56.781Z,58.73
2023-01-21T09:17:23.531Z,53.93
2023-01-21T09:19:50.101Z,59.87
2023-01-21T09:22:17.471Z,57.47
2023-01-21T09:24:44.154Z,53.93
2023-01-21T09:27:11.144Z,69.00
2023-01-21T09:29:37.696Z,54.27
2023-01-21T09:32:07.996Z,65.33
2023-01-21T09:34:35.868Z,61.83
2023-01-21T09:37:04.038Z,65.53
2023-01-21T09:39:30.631Z,60.40
2023-01-21T09:41:58.153Z,61.10
2023-01-21T09:44:44.724Z,66.43
2023-01-21T09:47:30.682Z,57.87
2023-01-21T09:50:05.406Z,64.13
2023-01-21T09:52:45.801Z,58.77
2023-01-21T09:55:44.017Z,58.37
2023-01-21T09:58:13.287Z,68.63
2023-01-21T10:00:52.409Z,61.93
2023-01-21T10:03:55.389Z,55.67
2023-01-21T10:06:47.137Z,54.97
2023-01-21T10:09:38.685Z,48.97
2023-01-21T10:12:23.594Z,60.00
2023-01-21T10:15:05.007Z,47.80
2023-01-21T10:17:53.264Z,54.77
2023-01-21T10:20:42.044Z,49.40
2023-01-21T10:23:27.735Z,51.03
2023-01-21T10:25:56.113Z,60.23
2023-01-21T10:28:25.190Z,42.97
2023-01-21T10:30:53.989Z,54.87
2023-01-21T10:33:24.075Z,50.03
2023-01-21T10:36:10.742Z,48.67
2023-01-21T10:38:40.531Z,52.47
2023-01-21T10:42:00.707Z,51.20
2023-01-21T10:44:53.176Z,51.33
2023-01-21T10:47:25.853Z,45.30
2023-01-21T10:50:24.555Z,48.37
2023-01-21T10:53:06.927Z,42.97
2023-01-21T10:55:42.153Z,45.90
2023-01-21T10:58:44.723Z,48.73
2023-01-21T11:01:32.786Z,45.47
2023-01-21T11:04:04.011Z,43.93
2023-01-21T11:06:33.196Z,38.20
2023-01-21T11:09:02.893Z,45.93
2023-01-21T11:11:35.548Z,43.60
2023-01-21T11:14:02.383Z,44.40
2023-01-21T11:16:43.452Z,48.60
2023-01-21T11:19:18.573Z,40.60
2023-01-21T11:21:57.435Z,43.90
2023-01-21T11:24:25.652Z,42.80
2023-01-21T11:26:59.057Z,36.50
2023-01-21T11:29:26.519Z,40.40
2023-01-21T11:32:15.889Z,39.70
2023-01-21T11:34:51.156Z,36.13
2023-01-21T11:37:26.809Z,35.00
2023-01-21T11:39:59.898Z,31.80
2023-01-21T11:42:27.013Z,30.60
2023-01-21T11:45:04.280Z,33.30
2023-01-21T11:47:46.298Z,32.20
2023-01-21T11:50:22.575Z,33.33
2023-01-21T11:53:12.871Z,34.40
2023-01-21T11:55:46.679Z,33.87
2023-01-21T11:58:22.105Z,31.77
2023-01-21T12:00:51.154Z,30.10
2023-01-21T12:03:21.209Z,32.90
2023-01-21T12:05:49.905Z,29.50
2023-01-21T12:08:23.748Z,31.90
2023-01-21T12:10:52.829Z,28.97
2023-01-21T12:13:43.406Z,29.20
2023-01-21T12:16:40.409Z,29.80
2023-01-21T12:19:25.696Z,28.27
2023-01-21T12:22:19.540Z,27.90
2023-01-21T12:25:07.139Z,25.87
2023-01-21T12:28:00.186Z,24.70
2023-01-21T12:30:37.662Z,26.07
2023-01-21T12:33:24.552Z,30.10
2023-01-21T12:35:55.463Z,35.07
2023-01-21T12:38:26.739Z,28.07
2023-01-21T12:41:08.803Z,29.03
2023-01-21T12:43:41.941Z,28.23
2023-01-21T12:46:40.747Z,29.70
2023-01-21T12:49:07.300Z,28.93
2023-01-21T12:51:40.143Z,33.87
2023-01-21T12:54:25.660Z,30.00
2023-01-21T12:57:03.126Z,25.13
2023-01-21T12:59:42.681Z,27.50
2023-01-21T13:02:34.136Z,29.17
2023-01-21T13:05:49.366Z,29.03
2023-01-21T13:08:18.631Z,30.40
2023-01-21T13:10:50.041Z,27.00
2023-01-21T13:13:41.765Z,30.40
2023-01-21T13:16:09.957Z,26.87
2023-01-21T13:18:40.963Z,31.50
2023-01-21T13:21:13.455Z,28.40
2023-01-21T13:23:54.217Z,35.80
2023-01-21T13:26:43.795Z,28.00
2023-01-21T13:29:18.523Z,27.27
2023-01-21T13:32:38.893Z,32.90
2023-01-21T13:35:46.034Z,32.50
2023-01-21T13:38:41.520Z,31.40
2023-01-21T13:41:46.829Z,29.60
2023-01-21T13:44:31.927Z,27.10
2023-01-21T13:47:25.503Z,35.00
2023-01-21T13:50:17.290Z,34.83
2023-01-21T13:52:55.565Z,31.13
2023-01-21T13:55:24.919Z,34.53
2023-01-21T13:58:03.062Z,32.17
2023-01-21T14:00:35.608Z,34.10
2023-01-21T14:03:12.504Z,32.47
2023-01-21T14:06:06.254Z,32.37
2023-01-21T14:08:48.271Z,32.17
2023-01-21T14:12:04.487Z,31.13
2023-01-21T14:14:49.824Z,47.20
2023-01-21T14:17:23.501Z,36.17
2023-01-21T14:20:03.451Z,33.33
2023-01-21T14:22:51.616Z,34.07
2023-01-21T14:25:32.236Z,37.37
2023-01-21T14:28:04.813Z,35.80
2023-01-21T14:30:38.866Z,37.07
2023-01-21T14:33:11.498Z,41.40
2023-01-21T14:36:14.531Z,34.47
2023-01-21T14:38:50.414Z,34.30
2023-01-21T14:41:17.032Z,38.93
2023-01-21T14:43:44.281Z,40.37
2023-01-21T14:46:25.191Z,31.97
2023-01-21T14:49:11.785Z,33.40
2023-01-21T14:51:44.316Z,38.97
2023-01-21T14:54:17.580Z,38.43
2023-01-21T14:57:13.669Z,36.47
2023-01-21T14:59:46.169Z,41.30
2023-01-21T15:02:34.001Z,31.37
2023-01-21T15:05:03.649Z,35.10
2023-01-21T15:07:41.660Z,36.37
2023-01-21T15:10:15.187Z,32.13
2023-01-21T15:12:51.702Z,37.97
2023-01-21T15:15:32.890Z,30.83
2023-01-21T15:18:24.377Z,35.30
2023-01-21T15:20:58.844Z,30.83
2023-01-21T15:23:31.128Z,29.60
2023-01-21T15:26:11.075Z,33.77
2023-01-21T15:28:46.595Z,32.03
2023-01-21T15:31:21.804Z,30.73
2023-01-21T15:34:00.827Z,38.70
2023-01-21T15:36:31.686Z,28.77
2023-01-21T15:39:19.051Z,30.57
2023-01-21T15:42:13.463Z,36.30
2023-01-21T15:44:48.123Z,27.43
2023-01-21T15:47:29.444Z,30.97
2023-01-21T15:50:17.631Z,28.47
2023-01-21T15:53:22.037Z,27.70
2023-01-21T15:56:07.467Z,29.57
2023-01-21T15:58:46.239Z,28.80
2023-01-21T16:01:38.905Z,32.07
2023-01-21T16:04:35.572Z,26.90
2023-01-21T16:07:38.928Z,29.43
2023-01-21T16:10:42.909Z,28.43
2023-01-21T16:13:33.928Z,28.07
2023-01-21T16:16:03.662Z,31.07
2023-01-21T16:19:03.984Z,30.63
2023-01-21T16:21:36.651Z,26.13
2023-01-21T16:24:12.952Z,23.33
2023-01-21T16:26:39.543Z,27.40
2023-01-21T16:29:12.978Z,25.00
2023-01-21T16:31:51.116Z,28.27
2023-01-21T16:34:31.290Z,23.00
2023-01-21T16:36:58.196Z,29.60
2023-01-21T16:39:25.632Z,30.67
2023-01-21T16:42:04.506Z,26.33
2023-01-21T16:44:33.607Z,28.30
2023-01-21T16:47:00.526Z,30.87
2023-01-21T16:49:27.271Z,26.47
2023-01-21T16:51:57.213Z,27.67
2023-01-21T16:54:32.049Z,29.07
2023-01-21T16:57:19.464Z,32.00
2023-01-21T16:59:48.318Z,28.00
2023-01-21T17:02:22.278Z,28.27
2023-01-21T17:04:49.657Z,32.00
2023-01-21T17:07:24.284Z,31.30
2023-01-21T17:09:59.028Z,38.37
2023-01-21T17:12:28.181Z,36.40
2023-01-21T17:14:58.602Z,39.83
2023-01-21T17:17:31.208Z,37.70
2023-01-21T17:19:58.633Z,35.30
2023-01-21T17:22:28.748Z,34.93
2023-01-21T17:25:12.532Z,35.40
2023-01-21T17:27:44.578Z,37.10
2023-01-21T17:30:37.488Z,31.87
2023-01-21T17:33:04.048Z,31.23
2023-01-21T17:35:32.803Z,29.30
2023-01-21T17:38:05.306Z,26.83
2023-01-21T17:40:42.404Z,37.80
2023-01-21T17:43:19.200Z,37.93
2023-01-21T17:45:47.645Z,33.47
2023-01-21T17:48:29.823Z,38.80
2023-01-21T17:51:05.294Z,31.67
2023-01-21T17:53:31.927Z,32.17
2023-01-21T17:56:06.081Z,31.07
2023-01-21T17:58:51.127Z,31.17
2023-01-21T18:01:19.982Z,34.97
2023-01-21T18:03:46.860Z,31.67
2023-01-21T18:06:19.785Z,31.33
2023-01-21T18:08:46.445Z,28.37
2023-01-21T18:11:15.964Z,27.23
2023-01-21T18:13:42.641Z,25.47
2023-01-21T18:16:09.366Z,29.57
2023-01-21T18:18:36.126Z,26.57
2023-01-21T18:21:02.775Z,29.03
2023-01-21T18:23:30.407Z,26.63
2023-01-21T18:25:57.410Z,24.70
2023-01-21T18:28:28.714Z,25.93
2023-01-21T18:30:57.511Z,30.63
2023-01-21T18:33:24.744Z,29.20
2023-01-21T18:35:52.461Z,24.93
2023-01-21T18:38:27.225Z,28.47
2023-01-21T18:40:57.551Z,31.00
2023-01-21T18:43:25.500Z,31.20
2023-01-21T18:45:54.150Z,31.93
2023-01-21T18:48:27.391Z,31.73
2023-01-21T18:50:54.108Z,30.70
2023-01-21T18:53:20.750Z,29.43
2023-01-21T18:55:50.192Z,29.67
2023-01-21T18:58:17.177Z,36.63
2023-01-21T19:00:43.858Z,40.67
2023-01-21T19:03:13.693Z,41.57
2023-01-21T19:05:43.207Z,34.53
2023-01-21T19:08:14.281Z,35.60
2023-01-21T19:10:40.864Z,35.20
2023-01-21T19:13:09.407Z,40.03
2023-01-21T19:15:36.149Z,39.90
2023-01-21T19:18:03.025Z,34.60
2023-01-21T19:20:30.128Z,39.90
2023-01-21T19:22:56.751Z,40.40
2023-01-21T19:25:25.867Z,38.43
2023-01-21T19:27:55.531Z,41.30
2023-01-21T19:30:25.099Z,37.40
2023-01-21T19:32:53.624Z,36.67
2023-01-21T19:35:27.600Z,39.70
2023-01-21T19:37:54.903Z,44.07
2023-01-21T19:40:23.783Z,46.07
2023-01-21T19:42:50.637Z,38.40
2023-01-21T19:45:18.576Z,40.90
2023-01-21T19:47:48.661Z,44.30
2023-01-21T19:50:21.547Z,41.10
2023-01-21T19:52:49.906Z,41.93
2023-01-21T19:55:19.837Z,50.30
2023-01-21T19:57:50.208Z,44.33
2023-01-21T20:00:22.990Z,41.20
2023-01-21T20:02:49.662Z,44.20
2023-01-21T20:05:16.856Z,41.90
2023-01-21T20:07:44.809Z,39.70
2023-01-21T20:10:16.374Z,47.60
2023-01-21T20:12:46.834Z,44.70
2023-01-21T20:15:21.262Z,42.17
2023-01-21T20:17:52.514Z,44.47
2023-01-21T20:20:22.561Z,49.40
2023-01-21T20:22:49.449Z,48.60
2023-01-21T20:25:31.527Z,40.73
2023-01-21T20:28:00.254Z,43.90
2023-01-21T20:30:29.940Z,45.00
2023-01-21T20:32:57.767Z,41.47
2023-01-21T20:35:26.901Z,40.80
2023-01-21T20:37:55.598Z,42.27
2023-01-21T20:40:24.943Z,37.73
2023-01-21T20:42:52.399Z,46.60
2023-01-21T20:45:21.400Z,38.20
2023-01-21T20:47:51.292Z,40.03
2023-01-21T20:50:23.548Z,45.40
2023-01-21T20:52:51.592Z,40.73
2023-01-21T20:55:21.330Z,40.70
2023-01-21T20:57:48.146Z,38.37
2023-01-21T21:00:18.076Z,41.20
2023-01-21T21:02:45.292Z,35.70
2023-01-21T21:05:17.342Z,43.10
2023-01-21T21:07:44.339Z,46.30
2023-01-21T21:10:27.031Z,41.63
2023-01-21T21:12:55.354Z,44.47
2023-01-21T21:15:22.261Z,35.97
2023-01-21T21:17:49.043Z,34.90
2023-01-21T21:20:20.274Z,34.40
2023-01-21T21:22:48.159Z,38.77
2023-01-21T21:25:19.888Z,37.10
2023-01-21T21:27:47.384Z,33.90
2023-01-21T21:30:20.086Z,40.77
2023-01-21T21:32:46.683Z,40.67
2023-01-21T21:35:35.613Z,34.13
2023-01-21T21:38:07.532Z,38.00
2023-01-21T21:40:40.141Z,41.70
2023-01-21T21:43:25.614Z,35.13
2023-01-21T21:46:30.770Z,39.37
2023-01-21T21:48:57.328Z,39.00
2023-01-21T21:51:24.061Z,35.97
2023-01-21T21:53:51.166Z,37.67
2023-01-21T21:56:22.584Z,33.57
2023-01-21T21:58:50.332Z,35.43
2023-01-21T22:01:22.986Z,37.20
2023-01-21T22:03:50.024Z,25.43
2023-01-21T22:06:21.535Z,35.83
2023-01-21T22:08:49.079Z,31.97
2023-01-21T22:11:18.401Z,33.50
2023-01-21T22:13:50.147Z,31.67
2023-01-21T22:16:23.543Z,35.60
2023-01-21T22:18:51.379Z,30.10
2023-01-21T22:21:23.465Z,33.87
2023-01-21T22:23:50.786Z,36.50
2023-01-21T22:26:22.155Z,33.87
2023-01-21T22:28:51.112Z,31.10
2023-01-21T22:31:23.408Z,29.20
2023-01-21T22:33:50.881Z,37.87
2023-01-21T22:36:20.316Z,36.63
2023-01-21T22:38:47.653Z,32.37
2023-01-21T22:41:16.179Z,35.73
2023-01-21T22:43:50.087Z,33.67
2023-01-21T22:46:19.848Z,33.03
2023-01-21T22:48:46.825Z,33.20
2023-01-21T22:51:15.735Z,37.80
2023-01-21T22:53:45.159Z,34.27
2023-01-21T22:56:14.325Z,36.20
2023-01-21T22:58:41.143Z,31.77
2023-01-21T23:01:08.927Z,32.57
2023-01-21T23:03:37.068Z,38.90
2023-01-21T23:06:08.256Z,36.50
2023-01-21T23:08:37.714Z,32.30
2023-01-21T23:11:06.700Z,38.73
2023-01-21T23:13:34.426Z,38.00
2023-01-21T23:16:01.716Z,31.77
2023-01-21T23:18:29.260Z,34.53
2023-01-21T23:20:56.320Z,31.70
2023-01-21T23:23:23.882Z,38.67
2023-01-21T23:25:50.460Z,38.20
2023-01-21T23:28:17.572Z,26.70
2023-01-21T23:30:44.174Z,30.10
2023-01-21T23:33:11.945Z,31.13
2023-01-21T23:35:38.481Z,29.03
2023-01-21T23:38:05.027Z,28.63
2023-01-21T23:40:31.591Z,29.00
2023-01-21T23:42:58.273Z,31.40
2023-01-21T23:45:24.821Z,29.90
2023-01-21T23:47:51.453Z,26.63
2023-01-21T23:50:18.399Z,34.93
2023-01-21T23:52:45.096Z,29.17
2023-01-21T23:55:11.718Z,32.90
2023-01-21T23:57:38.292Z,29.37
